Time;durP1;ratioP1;P1;durP2;ratioP2;P2;SDS_P1;SDS_P2;PMS_P1;PMS_P2;Temp;Humidity;BMP_temperature;BMP_pressure;BME280_temperature;BME280_humidity;BME280_pressure;Samples;Min_cycle;Max_cycle;Signal;HPM_P1;HPM_P2
2022/11/09 00:01:22;;;;;;;31.75;22.52;;;;;;;7.93;83.83;99266.72;4949716;29;20051;-73
2022/11/09 00:03:53;;;;;;;34.53;22.90;;;;;;;7.93;83.73;99262.28;4949689;29;20063;-72
2022/11/09 00:06:20;;;;;;;33.83;23.40;;;;;;;7.93;83.77;99262.28;4948530;29;20039;-72
2022/11/09 00:08:48;;;;;;;34.15;22.10;;;;;;;7.80;83.84;99250.59;4949561;29;20047;-72
2022/11/09 00:11:15;;;;;;;37.15;24.02;;;;;;;7.90;84.17;99262.44;4949169;29;20095;-72
2022/11/09 00:13:43;;;;;;;36.38;22.00;;;;;;;7.89;84.01;99267.78;4949396;29;20048;-73
2022/11/09 00:16:13;;;;;;;32.65;22.00;;;;;;;7.92;83.87;99265.00;4949439;29;20059;-72
2022/11/09 00:18:46;;;;;;;36.38;23.42;;;;;;;7.93;83.88;99264.94;4949415;29;20367;-72
2022/11/09 00:21:14;;;;;;;35.42;24.50;;;;;;;7.92;83.94;99265.88;4949136;29;20052;-73
2022/11/09 00:23:41;;;;;;;38.25;24.27;;;;;;;7.94;84.02;99274.56;4949584;29;20051;-73
2022/11/09 00:26:11;;;;;;;37.45;25.05;;;;;;;7.92;83.84;99268.50;4949270;29;20184;-73
2022/11/09 00:28:38;;;;;;;35.08;23.85;;;;;;;7.45;83.45;99182.75;4949382;29;20048;-73
2022/11/09 00:31:08;;;;;;;36.80;24.13;;;;;;;7.95;83.65;99264.88;4949113;29;20299;-72
2022/11/09 00:33:35;;;;;;;36.58;25.55;;;;;;;7.94;83.79;99274.56;4949175;29;20106;-72
2022/11/09 00:36:06;;;;;;;37.03;24.33;;;;;;;7.93;83.86;99270.22;4949363;29;20127;-73
2022/11/09 00:38:33;;;;;;;35.92;23.95;;;;;;;7.43;83.92;99182.81;4948977;29;20047;-73
2022/11/09 00:41:01;;;;;;;35.03;23.25;;;;;;;7.92;83.91;99268.50;4948988;29;20043;-73
2022/11/09 00:43:29;;;;;;;39.55;24.42;;;;;;;7.92;84.00;99262.38;4948688;29;20075;-72
2022/11/09 00:45:56;;;;;;;38.85;25.35;;;;;;;7.90;83.96;99259.78;4948943;29;20056;-73
2022/11/09 00:48:22;;;;;;;42.63;26.83;;;;;;;7.89;84.17;99260.72;4948899;29;20103;-73
2022/11/09 00:50:50;;;;;;;39.80;25.88;;;;;;;7.92;84.05;99265.00;4949009;29;20063;-73
2022/11/09 00:53:17;;;;;;;43.65;27.08;;;;;;;7.91;84.03;99266.78;4949070;29;20052;-73
2022/11/09 00:55:43;;;;;;;41.92;26.90;;;;;;;7.91;84.00;99269.44;4947656;29;20095;-73
2022/11/09 00:58:10;;;;;;;39.90;24.45;;;;;;;7.91;84.15;99263.28;4948706;29;20056;-73
2022/11/09 01:00:38;;;;;;;41.47;27.25;;;;;;;7.92;84.19;99263.22;4949235;29;20240;-72
2022/11/09 01:03:05;;;;;;;39.53;25.30;;;;;;;7.93;84.05;99261.44;4948654;29;20066;-72
2022/11/09 01:05:31;;;;;;;43.85;25.33;;;;;;;5.43;83.63;98838.81;4947529;29;20051;-73
2022/11/09 01:07:58;;;;;;;41.05;24.80;;;;;;;7.94;84.20;99256.09;4948861;29;20059;-72
2022/11/09 01:10:25;;;;;;;44.00;28.48;;;;;;;7.95;84.08;99262.22;4946993;29;20094;-72
2022/11/09 01:12:52;;;;;;;41.92;25.13;;;;;;;7.96;84.28;99258.66;4947354;29;20239;-72
2022/11/09 01:15:18;;;;;;;42.42;25.88;;;;;;;7.97;83.94;99263.00;4948784;29;20047;-73
2022/11/09 01:17:47;;;;;;;41.50;25.42;;;;;;;7.98;84.14;99256.81;4948223;29;20051;-73
2022/11/09 01:20:14;;;;;;;40.22;24.42;;;;;;;7.98;84.14;99262.09;4948020;29;20059;-73
2022/11/09 01:22:41;;;;;;;41.20;25.83;;;;;;;7.98;84.37;99259.44;4948671;29;20302;-73
2022/11/09 01:25:09;;;;;;;41.20;27.85;;;;;;;7.99;84.26;99259.38;4948404;29;20055;-73
2022/11/09 01:27:36;;;;;;;42.17;25.08;;;;;;;7.98;84.38;99251.53;4947272;29;20091;-73
2022/11/09 01:30:03;;;;;;;45.03;27.48;;;;;;;7.98;84.55;99252.38;4948306;29;20043;-72
2022/11/09 01:32:31;;;;;;;39.78;25.00;;;;;;;7.97;84.41;99253.31;4948513;29;20222;-72
2022/11/09 01:34:59;;;;;;;46.17;27.27;;;;;;;7.97;84.63;99257.72;4948014;29;20048;-72
2022/11/09 01:37:26;;;;;;;48.70;26.75;;;;;;;7.98;84.76;99251.53;4948531;29;20105;-73
2022/11/09 01:39:53;;;;;;;41.35;25.98;;;;;;;7.98;84.66;99246.25;4947971;29;20354;-72
2022/11/09 01:42:23;;;;;;;41.53;26.42;;;;;;;7.86;84.87;99231.84;4963858;29;20087;-71
2022/11/09 01:45:23;;;;;;;40.08;25.95;;;;;;;7.31;85.10;99154.34;4948483;29;20056;-72
2022/11/09 01:47:53;;;;;;;43.42;28.15;;;;;;;7.98;85.10;99248.88;4947900;29;20052;-72
2022/11/09 01:50:28;;;;;;;48.33;26.35;;;;;;;7.98;85.23;99246.25;4947861;29;20063;-72
2022/11/09 01:52:55;;;;;;;46.10;26.90;;;;;;;7.99;85.16;99243.53;4948065;29;20047;-72
2022/11/09 01:55:24;;;;;;;43.75;27.33;;;;;;;8.01;84.98;99244.31;4948116;29;20056;-73
2022/11/09 01:57:55;;;;;;;38.55;24.95;;;;;;;8.03;85.01;99241.63;4947537;29;20185;-72
2022/11/09 02:00:22;;;;;;;45.78;24.83;;;;;;;8.06;84.97;99237.97;4947763;29;20059;-72
2022/11/09 02:02:55;;;;;;;43.15;27.48;;;;;;;8.06;85.12;99238.84;4947740;29;20039;-72
2022/11/09 02:05:27;;;;;;;40.53;25.30;;;;;;;8.07;85.00;99234.41;4948004;29;20095;-72
2022/11/09 02:07:55;;;;;;;50.30;27.02;;;;;;;7.94;85.07;99215.66;4946746;29;20095;-72
2022/11/09 02:10:28;;;;;;;48.55;29.77;;;;;;;8.05;85.45;99239.75;4948229;29;20059;-72
2022/11/09 02:12:57;;;;;;;45.85;26.38;;;;;;;8.06;85.25;99237.97;4947167;29;20095;-72
2022/11/09 02:15:24;;;;;;;44.75;27.35;;;;;;;8.04;85.52;99235.41;4946808;29;20098;-72
2022/11/09 02:17:53;;;;;;;41.78;26.90;;;;;;;8.02;85.62;99237.25;4946832;29;20086;-73
2022/11/09 02:20:22;;;;;;;42.80;27.30;;;;;;;8.04;85.75;99235.41;4947479;29;20055;-73
2022/11/09 02:22:49;;;;;;;44.78;25.92;;;;;;;8.04;85.73;99230.13;4951425;29;20124;-72
2022/11/09 02:25:17;;;;;;;40.47;25.20;;;;;;;7.79;85.61;99188.19;4951547;29;20047;-73
2022/11/09 02:27:45;;;;;;;42.75;27.48;;;;;;;8.06;85.63;99238.84;4951445;29;20111;-73
2022/11/09 02:30:13;;;;;;;42.90;26.00;;;;;;;8.05;85.67;99250.31;4951400;29;20044;-72
2022/11/09 02:32:40;;;;;;;38.85;23.25;;;;;;;8.07;85.78;99252.88;4951311;29;20103;-73
2022/11/09 02:35:07;;;;;;;43.55;25.05;;;;;;;8.07;86.01;99251.09;4951312;29;20055;-72
2022/11/09 02:37:39;;;;;;;51.63;29.55;;;;;;;8.10;85.71;99260.66;4950195;29;20099;-72
2022/11/09 02:40:14;;;;;;;42.95;26.13;;;;;;;7.82;85.47;99205.66;4950974;29;20044;-73
2022/11/09 02:42:40;;;;;;;44.95;25.08;;;;;;;8.12;85.50;99251.75;4951205;29;20302;-73
2022/11/09 02:45:08;;;;;;;45.15;25.95;;;;;;;8.12;85.38;99242.97;4950874;29;20043;-73
2022/11/09 02:47:35;;;;;;;41.80;26.10;;;;;;;8.11;85.43;99228.91;4950858;29;20243;-73
2022/11/09 02:50:02;;;;;;;48.17;26.67;;;;;;;8.10;85.61;99224.56;4950794;29;20047;-72
2022/11/09 02:52:28;;;;;;;37.65;25.73;;;;;;;8.11;85.50;99234.19;4966305;29;20043;-72
2022/11/09 02:54:57;;;;;;;41.90;25.40;;;;;;;8.12;85.49;99238.53;4950872;29;20244;-72
2022/11/09 02:57:24;;;;;;;44.33;26.40;;;;;;;8.12;85.49;99230.63;4950892;29;20047;-73
2022/11/09 02:59:51;;;;;;;40.17;26.15;;;;;;;8.13;85.48;99237.63;4949770;29;20295;-72
2022/11/09 03:02:17;;;;;;;41.30;24.27;;;;;;;8.13;85.55;99239.41;4950851;29;20299;-72
2022/11/09 03:04:44;;;;;;;42.50;24.20;;;;;;;8.14;85.36;99241.13;4951034;29;20103;-72
2022/11/09 03:07:11;;;;;;;42.95;24.63;;;;;;;8.14;85.38;99234.06;4949666;29;20095;-72
2022/11/09 03:09:37;;;;;;;45.35;26.77;;;;;;;8.14;85.46;99227.91;4950997;29;20059;-72
2022/11/09 03:14:47;;;;;;;41.50;26.50;;;;;;;8.13;85.50;99232.34;4950105;29;20071;-72
2022/11/09 03:17:13;;;;;;;43.40;25.08;;;;;;;8.15;85.31;99232.25;4950322;29;20063;-72
2022/11/09 03:19:40;;;;;;;44.47;25.17;;;;;;;8.14;85.25;99230.56;4950546;29;20082;-72
2022/11/09 03:22:07;;;;;;;45.80;26.98;;;;;;;8.14;85.22;99231.41;4950125;29;20263;-71
2022/11/09 03:24:33;;;;;;;41.95;25.70;;;;;;;8.13;85.33;99240.25;4950692;29;20059;-71
2022/11/09 03:27:00;;;;;;;39.00;24.45;;;;;;;8.14;85.33;99230.56;4950657;29;20047;-72
2022/11/09 03:29:28;;;;;;;43.88;24.70;;;;;;;8.16;85.24;99241.91;4950050;29;20099;-72
2022/11/09 03:31:55;;;;;;;43.22;24.67;;;;;;;8.17;85.15;99238.31;4949801;29;20051;-72
2022/11/09 03:34:22;;;;;;;40.40;23.42;;;;;;;8.15;85.25;99243.69;4950232;29;20295;-72
2022/11/09 03:36:48;;;;;;;42.25;25.23;;;;;;;8.16;85.13;99229.56;4949949;29;20057;-72
2022/11/09 03:39:15;;;;;;;48.15;28.40;;;;;;;8.18;85.18;99235.63;4949903;29;20056;-71
2022/11/09 03:41:42;;;;;;;42.00;25.83;;;;;;;8.18;85.14;99237.41;4949844;29;20043;-72
2022/11/09 03:44:09;;;;;;;49.33;25.60;;;;;;;8.19;84.97;99239.97;4950357;29;20095;-72
2022/11/09 03:46:37;;;;;;;46.67;27.30;;;;;;;8.18;85.16;99247.97;4950034;29;20103;-72
2022/11/09 03:49:04;;;;;;;44.63;26.60;;;;;;;8.18;85.05;99240.91;4949965;29;20047;-72
2022/11/09 03:51:30;;;;;;;43.22;24.73;;;;;;;8.19;85.20;99247.03;4949620;29;20192;-72
2022/11/09 03:53:57;;;;;;;42.28;26.05;;;;;;;8.20;85.08;99244.31;4949627;29;20066;-72
2022/11/09 03:56:24;;;;;;;43.50;26.95;;;;;;;8.19;85.38;99247.03;4949837;29;20219;-72
2022/11/09 03:58:50;;;;;;;45.92;25.35;;;;;;;8.19;85.20;99249.66;4949822;29;20055;-72
2022/11/09 04:01:17;;;;;;;39.13;26.27;;;;;;;8.18;85.23;99251.44;4949737;29;20047;-72
2022/11/09 04:03:45;;;;;;;49.10;25.83;;;;;;;8.19;85.15;99239.13;4949465;29;20231;-72
2022/11/09 04:06:12;;;;;;;39.50;23.60;;;;;;;8.19;85.12;99239.13;4949416;29;20216;-72
2022/11/09 04:08:39;;;;;;;38.47;24.42;;;;;;;8.19;85.36;99241.75;4949561;29;20110;-72
2022/11/09 04:11:05;;;;;;;39.33;26.63;;;;;;;8.19;85.10;99247.88;4949579;29;20149;-71
2022/11/09 04:13:32;;;;;;;43.88;26.33;;;;;;;8.20;85.12;99231.13;4948348;29;20039;-72
2022/11/09 04:15:59;;;;;;;41.50;26.83;;;;;;;8.22;85.17;99238.97;4949458;29;20063;-72
2022/11/09 04:18:25;;;;;;;42.75;25.92;;;;;;;8.22;85.20;99231.03;4949397;29;20087;-72
2022/11/09 04:20:54;;;;;;;44.05;25.80;;;;;;;8.14;85.06;99204.16;4948957;29;20327;-72
2022/11/09 04:23:20;;;;;;;41.45;24.27;;;;;;;8.22;85.08;99228.41;4949687;29;20051;-72
2022/11/09 04:25:47;;;;;;;46.13;27.20;;;;;;;8.23;85.06;99222.19;4948216;29;20091;-72
2022/11/09 04:28:14;;;;;;;40.63;25.65;;;;;;;8.23;85.10;99219.56;4948155;29;20039;-72
2022/11/09 04:30:41;;;;;;;41.78;24.27;;;;;;;8.22;85.25;99218.69;4949280;29;20055;-72
2022/11/09 04:33:09;;;;;;;43.47;26.02;;;;;;;8.24;84.99;99210.72;4947926;29;20036;-72
2022/11/09 04:35:37;;;;;;;42.85;26.48;;;;;;;8.24;85.11;99210.72;4948039;29;20040;-72
2022/11/09 04:38:07;;;;;;;38.28;23.52;;;;;;;6.17;84.79;98854.84;4948222;29;20318;-71
2022/11/09 04:40:35;;;;;;;41.67;27.52;;;;;;;8.26;85.01;99208.84;4949104;29;20048;-72
2022/11/09 04:43:03;;;;;;;40.05;25.50;;;;;;;8.27;85.11;99208.78;4948442;29;20086;-72
2022/11/09 04:45:32;;;;;;;37.78;24.90;;;;;;;8.28;84.86;99210.50;4947882;29;20090;-71
2022/11/09 04:47:59;;;;;;;39.33;24.92;;;;;;;8.29;84.95;99206.06;4948939;29;20095;-71
2022/11/09 04:50:27;;;;;;;42.17;26.65;;;;;;;8.32;85.04;99211.19;4948518;29;20075;-72
2022/11/09 04:52:54;;;;;;;40.30;24.65;;;;;;;8.31;84.87;99204.19;4948732;29;20055;-72
2022/11/09 04:55:22;;;;;;;39.40;25.17;;;;;;;8.32;84.80;99209.41;4948643;29;20051;-72
2022/11/09 04:57:48;;;;;;;34.55;23.15;;;;;;;8.29;84.59;99206.91;4948759;29;20047;-71
2022/11/09 05:00:16;;;;;;;37.00;24.33;;;;;;;8.31;84.58;99209.47;4947668;29;20330;-71
2022/11/09 05:02:43;;;;;;;41.70;26.52;;;;;;;8.29;84.72;99203.41;4947610;29;20040;-71
2022/11/09 05:05:09;;;;;;;36.55;24.38;;;;;;;8.29;84.62;99209.56;4948659;29;20047;-72
2022/11/09 05:07:37;;;;;;;38.28;25.20;;;;;;;8.28;84.58;99204.34;4948383;29;20115;-72
2022/11/09 05:10:04;;;;;;;38.03;25.80;;;;;;;8.29;84.40;99198.13;4948865;29;20047;-72
2022/11/09 05:12:32;;;;;;;38.92;24.65;;;;;;;8.29;84.52;99192.84;4948483;29;20047;-72
2022/11/09 05:14:58;;;;;;;40.30;26.40;;;;;;;8.30;84.42;99191.94;4947397;29;20051;-73
2022/11/09 05:17:25;;;;;;;39.05;25.42;;;;;;;8.29;84.58;99201.63;4948223;29;20177;-72
2022/11/09 05:19:52;;;;;;;42.85;26.08;;;;;;;8.31;84.47;99209.47;4948314;29;20059;-72
2022/11/09 05:25:03;;;;;;;39.83;26.63;;;;;;;8.31;84.44;99214.75;4948208;29;20135;-72
2022/11/09 05:27:30;;;;;;;39.83;26.58;;;;;;;8.31;84.61;99220.03;4948340;29;20075;-72
2022/11/09 05:29:58;;;;;;;44.50;28.52;;;;;;;8.33;84.49;99215.53;4948620;29;20053;-72
2022/11/09 05:32:25;;;;;;;42.00;27.38;;;;;;;8.23;84.40;99201.06;4948195;29;20055;-71
2022/11/09 05:34:51;;;;;;;44.15;27.13;;;;;;;8.32;84.50;99233.19;4963117;29;20055;-72
2022/11/09 05:37:21;;;;;;;42.72;27.88;;;;;;;8.34;84.53;99226.03;4947445;29;20044;-71
2022/11/09 05:39:47;;;;;;;44.05;27.42;;;;;;;8.33;84.54;99229.59;4947986;29;20047;-72
2022/11/09 05:42:14;;;;;;;39.92;26.30;;;;;;;8.33;84.44;99234.03;4948484;29;20055;-71
2022/11/09 05:44:41;;;;;;;37.88;24.73;;;;;;;8.31;84.39;99228.81;4948466;29;20047;-71
2022/11/09 05:47:09;;;;;;;37.47;22.40;;;;;;;8.17;84.40;99212.78;4948402;29;20056;-72
2022/11/09 05:49:36;;;;;;;41.38;28.58;;;;;;;8.31;84.40;99227.97;4948391;29;20055;-72
2022/11/09 05:52:02;;;;;;;39.47;25.58;;;;;;;8.31;84.47;99233.25;4948417;29;20099;-72
2022/11/09 05:54:29;;;;;;;38.13;24.95;;;;;;;8.30;84.43;99234.19;4948669;29;20035;-72
2022/11/09 05:56:56;;;;;;;38.83;23.20;;;;;;;8.15;84.40;99203.22;4951771;29;20063;-72
2022/11/09 05:59:22;;;;;;;40.10;26.88;;;;;;;8.31;84.37;99227.97;4951595;29;20099;-72
2022/11/09 06:01:49;;;;;;;35.53;22.38;;;;;;;8.31;84.28;99231.47;4950795;29;20051;-72
2022/11/09 06:04:17;;;;;;;42.35;27.90;;;;;;;8.32;84.48;99229.69;4951864;29;20051;-72
2022/11/09 06:06:44;;;;;;;42.40;25.40;;;;;;;8.35;84.72;99227.75;4951518;29;20302;-72
2022/11/09 06:09:11;;;;;;;37.75;21.92;;;;;;;8.32;84.28;99221.75;4951514;29;20345;-72
2022/11/09 06:11:37;;;;;;;40.28;24.40;;;;;;;7.81;84.13;99154.69;4951740;29;20110;-72
2022/11/09 06:14:04;;;;;;;39.17;23.38;;;;;;;8.27;84.33;99240.47;4951335;29;20299;-72
2022/11/09 06:16:31;;;;;;;38.22;23.13;;;;;;;8.26;84.45;99249.31;4951611;29;20091;-73
2022/11/09 06:18:57;;;;;;;37.00;25.10;;;;;;;8.27;84.43;99244.88;4951635;29;20055;-72
2022/11/09 06:21:25;;;;;;;34.42;21.92;;;;;;;8.12;84.40;99214.78;4950988;29;20130;-72
2022/11/09 06:23:52;;;;;;;44.70;24.60;;;;;;;8.30;84.27;99242.09;4951237;29;20059;-72
2022/11/09 06:26:19;;;;;;;35.80;22.88;;;;;;;8.18;84.25;99217.13;4966352;29;20067;-72
2022/11/09 06:28:45;;;;;;;37.10;24.05;;;;;;;8.29;84.19;99235.97;4951654;29;20102;-72
2022/11/09 06:31:13;;;;;;;36.97;21.70;;;;;;;8.28;84.25;99233.41;4951066;29;20102;-72
2022/11/09 06:33:40;;;;;;;36.50;22.92;;;;;;;8.27;84.35;99232.53;4950766;29;20039;-72
2022/11/09 06:36:07;;;;;;;38.10;24.30;;;;;;;5.78;83.98;98846.94;4951288;29;20044;-73
2022/11/09 06:38:36;;;;;;;34.70;23.33;;;;;;;8.27;84.31;99239.59;4951209;29;20236;-73
2022/11/09 06:41:02;;;;;;;36.78;23.25;;;;;;;8.25;84.15;99234.41;4951471;29;20058;-73
2022/11/09 06:43:29;;;;;;;38.28;23.35;;;;;;;8.26;84.16;99244.03;4950800;29;20047;-73
2022/11/09 06:45:56;;;;;;;40.78;23.08;;;;;;;8.28;84.16;99243.97;4950837;29;20311;-73
2022/11/09 06:48:23;;;;;;;34.05;21.63;;;;;;;7.97;84.00;99191.75;4950110;29;20044;-71
2022/11/09 06:50:50;;;;;;;33.20;22.08;;;;;;;8.28;84.03;99238.69;4951057;29;20044;-72
2022/11/09 06:53:17;;;;;;;31.73;20.33;;;;;;;8.27;83.98;99232.53;4951179;29;20047;-73
2022/11/09 06:55:45;;;;;;;37.03;22.20;;;;;;;8.25;84.09;99229.13;4965796;29;20236;-73
2022/11/09 06:58:15;;;;;;;35.08;23.25;;;;;;;8.25;84.11;99230.91;4950848;29;20057;-71
2022/11/09 07:00:42;;;;;;;34.33;21.10;;;;;;;8.24;83.95;99231.81;4950450;29;20211;-71
2022/11/09 07:03:13;;;;;;;35.97;23.70;;;;;;;8.24;83.75;99234.47;4951013;29;20099;-73
2022/11/09 07:05:40;;;;;;;37.20;23.05;;;;;;;8.24;84.10;99237.09;4949632;29;20310;-73
2022/11/09 07:08:06;;;;;;;33.80;22.00;;;;;;;7.71;84.04;99145.50;4949851;29;20051;-73
2022/11/09 07:10:33;;;;;;;35.25;22.55;;;;;;;8.23;84.01;99238.03;4949473;29;20318;-73
2022/11/09 07:13:02;;;;;;;37.40;23.25;;;;;;;8.19;83.94;99236.47;4950447;29;20232;-73
2022/11/09 07:15:29;;;;;;;40.05;24.88;;;;;;;8.18;83.89;99222.41;4950316;29;20078;-73
2022/11/09 07:17:57;;;;;;;35.75;22.75;;;;;;;8.19;83.99;99221.50;4950297;29;20047;-73
2022/11/09 07:20:24;;;;;;;36.97;22.63;;;;;;;8.16;83.99;99223.41;4949278;29;20056;-73
2022/11/09 07:22:51;;;;;;;35.15;22.98;;;;;;;8.16;83.78;99224.28;4950327;29;20052;-72
2022/11/09 07:25:18;;;;;;;40.00;21.45;;;;;;;8.15;83.86;99233.13;4950283;29;20206;-73
2022/11/09 07:27:45;;;;;;;33.80;21.45;;;;;;;8.14;83.72;99234.06;4950508;29;20071;-73
2022/11/09 07:30:14;;;;;;;32.65;21.65;;;;;;;8.04;83.56;99209.00;4950066;29;20047;-72
2022/11/09 07:32:41;;;;;;;30.55;19.70;;;;;;;8.15;83.54;99233.13;4950047;29;20087;-72
2022/11/09 07:35:09;;;;;;;30.85;20.02;;;;;;;8.17;83.45;99233.06;4949949;29;20047;-73
2022/11/09 07:37:36;;;;;;;29.50;19.52;;;;;;;8.16;83.16;99233.97;4950154;29;20043;-73
2022/11/09 07:40:04;;;;;;;34.55;22.17;;;;;;;8.01;83.11;99210.00;4950099;29;20047;-73
2022/11/09 07:42:30;;;;;;;30.23;19.95;;;;;;;8.16;83.31;99247.19;4949223;29;20039;-73
2022/11/09 07:44:57;;;;;;;34.33;20.38;;;;;;;8.18;83.25;99235.63;4964901;29;20098;-73
2022/11/09 07:47:25;;;;;;;38.22;21.95;;;;;;;8.17;83.29;99235.69;4949870;29;20048;-73
2022/11/09 07:49:52;;;;;;;32.47;21.88;;;;;;;8.20;83.18;99254.03;4949800;29;20047;-73
2022/11/09 07:52:19;;;;;;;33.28;19.48;;;;;;;8.19;83.01;99252.31;4949520;29;20043;-73
2022/11/09 07:54:45;;;;;;;33.47;20.88;;;;;;;8.18;83.11;99259.38;4949726;29;20104;-72
2022/11/09 07:57:12;;;;;;;31.42;19.00;;;;;;;8.19;83.14;99257.59;4950125;29;20239;-73
2022/11/09 07:59:39;;;;;;;28.30;19.42;;;;;;;8.19;83.14;99254.94;4949501;29;20057;-72
2022/11/09 08:02:06;;;;;;;32.67;19.70;;;;;;;7.62;82.97;99169.66;4949721;29;20047;-73
2022/11/09 08:04:34;;;;;;;27.95;18.60;;;;;;;8.20;83.25;99267.22;4949634;29;20047;-72
2022/11/09 08:07:00;;;;;;;34.38;22.23;;;;;;;8.20;83.16;99268.09;4949377;29;20358;-73
2022/11/09 08:09:28;;;;;;;31.52;20.02;;;;;;;8.21;83.10;99266.28;4949291;29;20054;-73
2022/11/09 08:11:55;;;;;;;30.55;19.58;;;;;;;8.18;82.99;99272.56;4949464;29;20050;-73
2022/11/09 08:14:22;;;;;;;30.92;19.60;;;;;;;8.14;83.07;99272.78;4949348;29;20047;-73
2022/11/09 08:16:48;;;;;;;32.67;21.08;;;;;;;8.17;83.10;99272.66;4949101;29;20043;-73
2022/11/09 08:19:15;;;;;;;37.80;21.17;;;;;;;8.11;83.08;99262.38;4949426;29;20047;-73
2022/11/09 08:21:43;;;;;;;31.23;19.85;;;;;;;8.17;83.24;99272.66;4949080;29;20056;-74
2022/11/09 08:24:10;;;;;;;32.30;21.30;;;;;;;8.16;83.25;99274.44;4949035;29;20043;-73
2022/11/09 08:26:37;;;;;;;27.98;18.85;;;;;;;8.18;83.31;99269.94;4949095;29;20047;-73
2022/11/09 08:29:04;;;;;;;28.48;18.88;;;;;;;8.19;83.23;99268.16;4948917;29;20315;-73
2022/11/09 08:31:30;;;;;;;31.98;19.50;;;;;;;8.05;83.21;99236.25;4949149;29;20078;-73
2022/11/09 08:33:57;;;;;;;30.00;19.70;;;;;;;8.20;83.21;99252.25;4949042;29;20078;-73
2022/11/09 08:50:53;;;;;;;33.35;22.38;;;;;;;8.67;80.14;99242.03;5142905;27;20866;-71
2022/11/09 08:53:19;;;;;;;30.75;20.98;;;;;;;8.44;81.43;99247.56;5143996;28;20050;-71
2022/11/09 08:55:46;;;;;;;30.33;19.80;;;;;;;8.32;82.50;99246.38;5143842;28;20058;-71
2022/11/09 08:58:13;;;;;;;31.35;21.27;;;;;;;8.25;82.70;99249.38;5143792;28;20046;-71
2022/11/09 09:00:40;;;;;;;32.72;21.58;;;;;;;7.81;82.83;99199.53;5143763;28;20108;-71
2022/11/09 09:03:07;;;;;;;31.00;20.10;;;;;;;8.21;83.26;99263.66;5143744;28;20291;-71
2022/11/09 09:05:35;;;;;;;34.47;21.90;;;;;;;8.20;83.58;99273.34;5143770;28;20058;-71
2022/11/09 09:08:05;;;;;;;32.28;21.13;;;;;;;8.17;83.83;99270.88;5143458;28;20054;-71
2022/11/09 09:10:34;;;;;;;33.35;19.75;;;;;;;8.18;83.84;99274.34;5143692;28;20039;-71
2022/11/09 09:13:01;;;;;;;29.83;19.63;;;;;;;8.19;83.99;99273.44;5143503;28;20058;-71
2022/11/09 09:15:28;;;;;;;30.48;20.25;;;;;;;8.19;83.88;99278.72;5143456;28;20047;-71
2022/11/09 09:17:54;;;;;;;29.60;18.08;;;;;;;7.86;83.85;99216.00;5143455;28;20048;-71
2022/11/09 09:20:21;;;;;;;30.13;19.83;;;;;;;8.06;84.08;99256.44;5143360;28;20047;-72
2022/11/09 09:22:50;;;;;;;30.55;21.60;;;;;;;8.22;83.78;99276.78;5143508;28;20194;-71
2022/11/09 09:25:19;;;;;;;31.05;17.85;;;;;;;8.22;83.79;99281.22;5126155;28;20100;-71
2022/11/09 09:27:46;;;;;;;29.08;17.70;;;;;;;8.06;83.63;99252.03;5143515;28;20128;-71
2022/11/09 09:30:13;;;;;;;30.17;19.55;;;;;;;7.89;83.89;99231.69;5143132;28;20168;-71
2022/11/09 09:32:41;;;;;;;30.75;18.85;;;;;;;7.20;83.88;99110.00;5143260;28;20051;-71
2022/11/09 09:35:09;;;;;;;30.17;20.48;;;;;;;8.25;83.96;99294.25;5143190;28;20062;-72
2022/11/09 09:37:36;;;;;;;31.33;20.60;;;;;;;8.25;83.97;99291.63;5143175;28;20047;-73
2022/11/09 09:40:04;;;;;;;30.52;19.63;;;;;;;8.25;83.72;99287.19;5143050;28;20047;-73
2022/11/09 09:42:36;;;;;;;29.02;20.00;;;;;;;8.26;84.08;99291.56;5142982;28;20047;-73
2022/11/09 09:45:05;;;;;;;27.95;17.83;;;;;;;8.27;83.79;99288.00;5142959;28;20051;-71
2022/11/09 09:47:44;;;;;;;29.80;18.33;;;;;;;7.77;83.75;99224.34;5142855;28;20048;-71
2022/11/09 09:50:14;;;;;;;26.38;18.88;;;;;;;8.25;83.81;99281.91;5137376;28;20251;-71
2022/11/09 09:52:44;;;;;;;29.83;18.45;;;;;;;8.27;84.03;99284.50;5128860;28;20176;-71
2022/11/09 09:55:20;;;;;;;29.10;19.02;;;;;;;8.26;83.93;99288.91;5128957;28;20077;-72
2022/11/09 09:57:53;;;;;;;31.05;19.50;;;;;;;8.27;84.06;99292.41;5128995;28;20047;-72
2022/11/09 10:00:23;;;;;;;28.67;18.65;;;;;;;7.33;83.73;99129.66;5128861;28;20054;-71
2022/11/09 10:02:51;;;;;;;28.88;18.42;;;;;;;8.29;83.90;99285.28;5128715;28;20360;-71
2022/11/09 10:05:20;;;;;;;27.67;18.58;;;;;;;7.83;83.98;99204.75;5128722;28;20071;-71
2022/11/09 10:07:55;;;;;;;27.35;18.48;;;;;;;8.29;84.06;99285.28;5128741;28;20096;-71
2022/11/09 10:10:39;;;;;;;24.02;16.25;;;;;;;8.28;83.94;99288.84;5128178;28;20311;-72
2022/11/09 10:13:41;;;;;;;27.83;17.25;;;;;;;8.14;84.04;99267.50;5128236;28;20100;-72
2022/11/09 10:16:17;;;;;;;25.60;16.40;;;;;;;7.82;83.97;99219.72;5125837;28;20051;-72
2022/11/09 10:19:23;;;;;;;26.33;16.67;;;;;;;8.14;83.98;99262.22;5128424;28;20248;-72
2022/11/09 10:21:53;;;;;;;22.90;15.88;;;;;;;8.28;83.98;99286.19;5128566;28;20048;-72
2022/11/09 10:24:33;;;;;;;26.40;18.20;;;;;;;7.46;83.95;99166.88;5128564;28;20047;-72
2022/11/09 10:27:01;;;;;;;30.15;19.02;;;;;;;8.31;84.09;99296.63;5128259;28;20059;-72
2022/11/09 10:29:34;;;;;;;30.42;21.30;;;;;;;8.32;84.12;99304.47;5128112;28;20198;-72
2022/11/09 10:32:12;;;;;;;25.92;17.85;;;;;;;8.33;84.03;99305.31;5128200;28;20089;-72
2022/11/09 10:34:43;;;;;;;28.17;17.92;;;;;;;8.35;84.00;99303.47;5128288;28;20048;-71
2022/11/09 10:37:16;;;;;;;27.65;18.30;;;;;;;8.33;83.95;99294.75;5128145;28;20047;-71
2022/11/09 10:39:49;;;;;;;23.08;16.42;;;;;;;8.32;83.84;99296.53;5110679;28;20082;-71
2022/11/09 10:42:16;;;;;;;26.95;17.48;;;;;;;8.35;83.98;99295.53;5127948;28;20052;-72
2022/11/09 10:44:43;;;;;;;24.75;16.83;;;;;;;8.36;83.74;99294.63;5128171;28;20048;-72
2022/11/09 10:47:15;;;;;;;21.80;15.95;;;;;;;8.38;83.95;99292.75;5128055;28;20058;-72
2022/11/09 10:49:42;;;;;;;25.30;18.38;;;;;;;8.09;83.52;99243.97;5127881;28;20321;-72
2022/11/09 10:52:31;;;;;;;25.52;16.77;;;;;;;8.37;83.61;99292.84;5128026;28;20225;-72
2022/11/09 10:55:20;;;;;;;25.40;15.88;;;;;;;8.38;84.00;99300.69;5127804;28;20120;-72
2022/11/09 10:57:55;;;;;;;25.38;16.88;;;;;;;8.37;83.72;99306.91;5127964;28;20059;-71
2022/11/09 11:00:22;;;;;;;28.08;16.83;;;;;;;8.39;83.74;99293.63;5127786;28;20199;-71
2022/11/09 11:02:51;;;;;;;25.20;16.23;;;;;;;8.39;83.66;99293.63;5126729;28;20071;-71
2022/11/09 11:05:27;;;;;;;26.35;16.33;;;;;;;8.39;83.50;99301.53;5127472;28;20306;-72
2022/11/09 11:07:54;;;;;;;26.50;16.27;;;;;;;7.96;83.62;99232.28;5127354;28;20058;-72
2022/11/09 11:10:22;;;;;;;22.65;15.25;;;;;;;8.42;83.58;99299.63;5127425;28;20059;-72
2022/11/09 11:12:58;;;;;;;25.42;15.68;;;;;;;8.43;83.39;99297.81;5127269;28;20047;-72
2022/11/09 11:15:29;;;;;;;23.52;14.07;;;;;;;8.43;83.29;99292.53;5127434;28;20378;-72
2022/11/09 11:18:03;;;;;;;21.92;16.30;;;;;;;8.43;83.44;99289.91;5127521;28;20186;-72
2022/11/09 11:20:32;;;;;;;26.55;14.93;;;;;;;8.45;83.45;99291.53;5127349;28;20047;-72
2022/11/09 11:23:13;;;;;;;23.98;15.30;;;;;;;8.46;83.28;99295.03;5127347;28;20047;-72
2022/11/09 11:25:58;;;;;;;24.50;17.05;;;;;;;8.45;83.19;99296.81;5127319;28;20047;-72
2022/11/09 11:28:33;;;;;;;26.10;15.40;;;;;;;8.44;83.46;99295.13;5127316;28;20237;-72
2022/11/09 11:30:59;;;;;;;;;;;;;;;8.39;83.25;99293.63;5127812;28;20294;-72
2022/11/09 11:33:28;;;;;;;21.98;14.32;;;;;;;8.41;83.52;99289.97;5127063;28;19916;-72
2022/11/09 11:35:58;;;;;;;22.55;16.23;;;;;;;8.44;83.45;99281.91;5126370;28;20073;-72
2022/11/09 11:38:30;;;;;;;23.65;16.38;;;;;;;8.45;83.50;99280.97;5126723;28;20067;-72
2022/11/09 11:41:06;;;;;;;27.27;16.98;;;;;;;8.00;83.38;99200.38;5126817;28;20059;-72
2022/11/09 11:43:45;;;;;;;24.45;15.90;;;;;;;8.47;82.96;99280.91;5126580;28;20047;-72
2022/11/09 11:46:16;;;;;;;24.35;16.85;;;;;;;8.49;83.23;99322.16;5126810;28;20172;-72
2022/11/09 11:49:18;;;;;;;24.67;17.33;;;;;;;8.39;83.12;99257.50;5126545;28;20119;-72
2022/11/09 11:51:55;;;;;;;22.30;14.40;;;;;;;8.29;83.13;99245.66;5096035;28;20059;-72
2022/11/09 11:54:31;;;;;;;28.58;18.25;;;;;;;8.50;83.10;99286.03;5126529;28;20055;-72